createdAt,value
2022-09-12T00:00:36.845Z,81.54
2022-09-12T00:01:36.932Z,81.42
2022-09-12T00:02:36.796Z,81.32
2022-09-12T00:03:36.912Z,81.80
2022-09-12T00:04:36.861Z,81.78
2022-09-12T00:05:36.850Z,81.37
2022-09-12T00:06:36.717Z,81.39
2022-09-12T00:07:36.768Z,81.29
2022-09-12T00:08:36.839Z,81.06
2022-09-12T00:09:36.938Z,81.07
2022-09-12T00:10:36.659Z,80.82
2022-09-12T00:11:36.847Z,80.73
2022-09-12T00:12:36.626Z,80.44
2022-09-12T00:13:41.714Z,80.42
2022-09-12T00:14:36.648Z,80.29
2022-09-12T00:15:36.720Z,80.32
2022-09-12T00:16:36.601Z,80.18
2022-09-12T00:17:36.657Z,80.12
2022-09-12T00:18:36.557Z,79.96
2022-09-12T00:19:36.698Z,79.93
2022-09-12T00:20:36.548Z,80.02
2022-09-12T00:21:36.674Z,80.22
2022-09-12T00:22:36.507Z,80.39
2022-09-12T00:23:36.658Z,80.07
2022-09-12T00:24:36.498Z,79.94
2022-09-12T00:25:36.696Z,80.31
2022-09-12T00:26:36.477Z,79.83
2022-09-12T00:27:36.559Z,79.94
2022-09-12T00:28:36.460Z,79.73
2022-09-12T00:29:38.561Z,80.01
2022-09-12T00:30:36.457Z,79.66
2022-09-12T00:31:36.550Z,79.64
2022-09-12T00:32:36.410Z,79.49
2022-09-12T00:33:36.559Z,79.79
2022-09-12T00:34:36.426Z,79.99
2022-09-12T00:35:57.548Z,80.50
2022-09-12T00:36:36.362Z,80.89
2022-09-12T00:37:36.406Z,80.12
2022-09-12T00:38:36.320Z,79.94
2022-09-12T00:39:36.643Z,79.92
2022-09-12T00:40:36.270Z,80.58
2022-09-12T00:41:37.409Z,80.60
2022-09-12T00:42:36.239Z,79.94
2022-09-12T00:43:38.308Z,79.89
2022-09-12T00:44:36.360Z,80.02
2022-09-12T00:45:36.263Z,79.88
2022-09-12T00:46:36.188Z,79.75
2022-09-12T00:47:58.340Z,79.76
2022-09-12T00:48:36.266Z,80.01
2022-09-12T00:49:38.311Z,80.45
2022-09-12T00:50:36.196Z,79.82
2022-09-12T00:51:36.390Z,80.75
2022-09-12T00:52:36.172Z,80.50
2022-09-12T00:53:36.282Z,79.97
2022-09-12T00:54:36.082Z,80.38
2022-09-12T00:55:36.120Z,81.16
2022-09-12T00:56:36.076Z,80.21
2022-09-12T00:57:36.223Z,80.43
2022-09-12T00:58:36.180Z,80.30
2022-09-12T00:59:36.210Z,80.95
2022-09-12T01:00:36.012Z,81.20
2022-09-12T01:01:36.239Z,81.10
2022-09-12T01:02:36.001Z,80.75
2022-09-12T01:03:36.129Z,80.86
2022-09-12T01:04:36.000Z,81.22
2022-09-12T01:05:38.094Z,81.59
2022-09-12T01:06:35.922Z,81.96
2022-09-12T01:07:39.906Z,81.92
2022-09-12T01:08:35.920Z,82.05
2022-09-12T01:09:38.111Z,81.76
2022-09-12T01:10:35.901Z,81.49
2022-09-12T01:11:36.081Z,81.29
2022-09-12T01:12:35.896Z,81.28
2022-09-12T01:13:35.938Z,81.38
2022-09-12T01:14:35.958Z,81.31
2022-09-12T01:15:36.963Z,80.58
2022-09-12T01:16:35.849Z,80.53
2022-09-12T01:17:35.910Z,80.47
2022-09-12T01:18:35.771Z,80.60
2022-09-12T01:19:36.873Z,80.38
2022-09-12T01:20:35.767Z,80.42
2022-09-12T01:21:35.780Z,80.44
2022-09-12T01:22:35.804Z,80.01
2022-09-12T01:23:35.832Z,80.11
2022-09-12T01:24:35.694Z,80.02
2022-09-12T01:25:35.851Z,79.92
2022-09-12T01:26:35.701Z,79.75
2022-09-12T01:27:56.811Z,79.65
2022-09-12T01:28:35.747Z,79.84
2022-09-12T01:29:35.940Z,79.85
2022-09-12T01:30:35.612Z,80.11
2022-09-12T01:31:57.884Z,80.86
2022-09-12T01:32:35.601Z,80.45
2022-09-12T01:33:35.693Z,79.94
2022-09-12T01:34:35.563Z,79.92
2022-09-12T01:35:35.794Z,79.85
2022-09-12T01:36:35.541Z,79.81
2022-09-12T01:37:35.717Z,79.80
2022-09-12T01:38:35.513Z,79.75
2022-09-12T01:39:35.601Z,79.65
2022-09-12T01:40:35.492Z,79.70
2022-09-12T01:41:35.641Z,79.73
2022-09-12T01:42:35.470Z,80.56
2022-09-12T01:43:38.773Z,81.49
2022-09-12T01:44:35.446Z,81.22
2022-09-12T01:45:35.644Z,81.04
2022-09-12T01:46:35.404Z,81.24
2022-09-12T01:47:36.687Z,81.58
2022-09-12T01:48:35.418Z,81.93
2022-09-12T01:49:36.451Z,81.75
2022-09-12T01:50:35.362Z,81.88
2022-09-12T01:51:35.413Z,82.07
2022-09-12T01:52:35.380Z,81.59
2022-09-12T01:53:35.446Z,81.38
2022-09-12T01:54:35.302Z,81.48
2022-09-12T01:55:35.483Z,81.14
2022-09-12T01:56:35.294Z,80.99
2022-09-12T01:57:35.473Z,81.71
2022-09-12T01:58:35.353Z,82.16
2022-09-12T01:59:35.353Z,82.03
2022-09-12T02:00:35.228Z,81.42
2022-09-12T02:01:35.364Z,81.39
2022-09-12T02:02:35.215Z,81.28
2022-09-12T02:03:35.324Z,81.00
2022-09-12T02:04:35.243Z,81.13
2022-09-12T02:05:35.421Z,81.15
2022-09-12T02:06:35.143Z,81.06
2022-09-12T02:07:35.244Z,80.89
2022-09-12T02:08:35.155Z,80.91
2022-09-12T02:09:35.294Z,80.97
2022-09-12T02:10:35.096Z,80.95
2022-09-12T02:12:45.008Z,80.56
2022-09-12T02:13:44.847Z,80.59
2022-09-12T02:14:44.887Z,80.81
2022-09-12T02:15:44.873Z,81.01
2022-09-12T02:16:47.006Z,80.93
2022-09-12T02:17:44.787Z,80.74
2022-09-12T02:18:47.177Z,80.82
2022-09-12T02:19:44.763Z,80.74
2022-09-12T02:20:48.443Z,80.52
2022-09-12T02:21:44.769Z,80.43
2022-09-12T02:22:44.829Z,80.37
2022-09-12T02:23:44.847Z,80.09
2022-09-12T02:24:44.829Z,80.54
2022-09-12T02:25:44.688Z,80.52
2022-09-12T02:26:44.804Z,81.42
2022-09-12T02:27:44.657Z,80.91
2022-09-12T02:28:45.820Z,81.62
2022-09-12T02:29:44.638Z,81.83
2022-09-12T02:30:44.959Z,82.20
2022-09-12T02:31:44.606Z,81.99
2022-09-12T02:33:07.680Z,82.43
2022-09-12T02:33:44.587Z,81.86
2022-09-12T02:34:45.668Z,81.42
2022-09-12T02:35:44.559Z,81.46
2022-09-12T02:36:44.797Z,82.29
2022-09-12T02:37:44.596Z,82.13
2022-09-12T02:39:05.750Z,81.95
2022-09-12T02:39:45.476Z,82.69
2022-09-12T02:40:45.579Z,82.83
2022-09-12T02:41:44.478Z,83.19
2022-09-12T02:42:44.610Z,83.30
2022-09-12T02:43:44.500Z,82.89
2022-09-12T02:44:44.519Z,83.36
2022-09-12T02:45:44.469Z,83.24
2022-09-12T02:46:44.558Z,82.85
2022-09-12T02:47:44.397Z,83.04
2022-09-12T02:48:44.580Z,83.55
2022-09-12T02:49:44.379Z,83.90
2022-09-12T02:50:44.475Z,83.46
2022-09-12T02:51:44.372Z,83.86
2022-09-12T02:52:44.527Z,83.62
2022-09-12T02:53:44.389Z,83.03
2022-09-12T02:54:44.446Z,83.60
2022-09-12T02:55:44.298Z,83.70
2022-09-12T02:56:45.459Z,83.79
2022-09-12T02:57:44.298Z,83.93
2022-09-12T02:58:44.499Z,83.71
2022-09-12T02:59:44.279Z,83.66
2022-09-12T03:00:44.348Z,82.96
2022-09-12T03:01:44.221Z,82.35
2022-09-12T03:02:45.362Z,82.13
2022-09-12T03:03:44.188Z,81.56
2022-09-12T03:04:44.196Z,81.69
2022-09-12T03:05:44.166Z,81.93
2022-09-12T03:06:44.268Z,81.52
2022-09-12T03:07:44.271Z,81.31
2022-09-12T03:08:45.228Z,81.40
2022-09-12T03:09:44.146Z,82.60
2022-09-12T03:10:44.200Z,82.82
2022-09-12T03:11:44.078Z,83.08
2022-09-12T03:12:44.315Z,83.49
2022-09-12T03:13:44.110Z,83.40
2022-09-12T03:14:44.146Z,83.45
2022-09-12T03:15:44.031Z,83.88
2022-09-12T03:16:44.224Z,84.01
2022-09-12T03:17:44.006Z,84.21
2022-09-12T03:18:45.189Z,84.58
2022-09-12T03:19:44.030Z,84.46
2022-09-12T03:21:05.038Z,84.31
2022-09-12T03:21:43.955Z,84.45
2022-09-12T03:22:49.245Z,84.43
2022-09-12T03:23:44.970Z,84.57
2022-09-12T03:24:44.079Z,84.52
2022-09-12T03:25:43.893Z,84.42
2022-09-12T03:26:43.952Z,84.76
2022-09-12T03:27:43.879Z,84.86
2022-09-12T03:28:44.037Z,84.85
2022-09-12T03:29:43.840Z,84.68
2022-09-12T03:30:44.059Z,84.61
2022-09-12T03:31:43.818Z,84.55
2022-09-12T03:33:04.963Z,84.61
2022-09-12T03:33:43.861Z,84.71
2022-09-12T03:34:43.941Z,84.98
2022-09-12T03:35:43.781Z,85.07
2022-09-12T03:36:43.890Z,85.04
2022-09-12T03:37:43.740Z,85.16
2022-09-12T03:38:44.897Z,85.07
2022-09-12T03:39:43.773Z,85.32
2022-09-12T03:40:43.814Z,85.47
2022-09-12T03:41:43.713Z,85.49
2022-09-12T03:42:45.834Z,85.56
2022-09-12T03:43:43.652Z,85.59
2022-09-12T03:44:44.940Z,85.77
2022-09-12T03:45:43.672Z,85.78
2022-09-12T03:46:43.761Z,85.92
2022-09-12T03:47:43.625Z,85.76
2022-09-12T03:48:43.750Z,85.62
2022-09-12T03:49:43.591Z,85.67
2022-09-12T03:50:43.680Z,85.56
2022-09-12T03:51:43.551Z,85.69
2022-09-12T03:52:43.731Z,85.70
2022-09-12T03:53:43.573Z,85.87
2022-09-12T03:54:43.600Z,85.97
2022-09-12T03:55:43.542Z,86.04
2022-09-12T03:56:43.588Z,86.04
2022-09-12T03:57:43.476Z,86.00
2022-09-12T03:58:44.612Z,86.16
2022-09-12T03:59:43.460Z,86.41
2022-09-12T04:00:46.793Z,86.56
2022-09-12T04:01:43.472Z,86.75
2022-09-12T04:02:43.651Z,86.70
2022-09-12T04:03:43.432Z,86.58
2022-09-12T04:04:43.431Z,86.46
2022-09-12T04:05:43.361Z,86.36
2022-09-12T04:06:43.533Z,86.58
2022-09-12T04:07:43.342Z,86.58
2022-09-12T04:08:43.610Z,86.40
2022-09-12T04:09:43.411Z,86.34
2022-09-12T04:10:43.434Z,86.46
2022-09-12T04:11:43.307Z,86.19
2022-09-12T04:12:43.448Z,86.07
2022-09-12T04:13:43.261Z,86.33
2022-09-12T04:14:43.292Z,86.24
2022-09-12T04:15:43.282Z,86.17
2022-09-12T04:16:44.433Z,86.50
2022-09-12T04:17:43.208Z,86.26
2022-09-12T04:18:43.324Z,86.04
2022-09-12T04:19:43.174Z,86.05
2022-09-12T04:20:44.343Z,85.84
2022-09-12T04:21:43.160Z,85.87
2022-09-12T04:23:04.250Z,85.91
2022-09-12T04:23:43.284Z,85.83
2022-09-12T04:24:43.233Z,86.08
2022-09-12T04:25:43.105Z,86.11
2022-09-12T04:26:43.213Z,85.94
2022-09-12T04:27:43.083Z,85.95
2022-09-12T04:28:43.319Z,85.88
2022-09-12T04:29:43.124Z,85.69
2022-09-12T04:30:43.151Z,85.97
2022-09-12T04:31:43.034Z,85.91
2022-09-12T04:32:43.224Z,86.22
2022-09-12T04:33:42.993Z,86.41
2022-09-12T04:34:43.143Z,86.29
2022-09-12T04:35:42.987Z,85.99
2022-09-12T04:36:43.215Z,86.07
2022-09-12T04:37:42.959Z,86.29
2022-09-12T04:38:43.025Z,86.37
2022-09-12T04:39:42.934Z,86.25
2022-09-12T04:40:43.024Z,86.22
2022-09-12T04:41:42.924Z,86.22
2022-09-12T04:42:42.956Z,86.11
2022-09-12T04:43:42.938Z,86.17
2022-09-12T04:44:44.003Z,86.22
2022-09-12T04:45:42.891Z,86.36
2022-09-12T04:47:03.945Z,86.31
2022-09-12T04:47:42.813Z,86.26
2022-09-12T04:48:43.005Z,86.36
2022-09-12T04:49:42.847Z,86.37
2022-09-12T04:50:43.884Z,86.17
2022-09-12T04:51:42.804Z,86.18
2022-09-12T04:53:03.863Z,86.51
2022-09-12T04:53:42.731Z,86.44
2022-09-12T04:54:43.895Z,86.33
2022-09-12T04:55:42.714Z,86.37
2022-09-12T04:56:42.935Z,86.38
2022-09-12T04:57:42.704Z,86.39
2022-09-12T04:58:43.032Z,86.79
2022-09-12T04:59:42.797Z,86.93
2022-09-12T05:00:42.746Z,86.64
2022-09-12T05:01:42.625Z,86.48
2022-09-12T05:02:42.782Z,86.26
2022-09-12T05:03:42.609Z,86.20
2022-09-12T05:04:42.737Z,86.32
2022-09-12T05:05:42.597Z,86.49
2022-09-12T05:06:42.895Z,86.66
2022-09-12T05:07:42.544Z,86.60
2022-09-12T05:09:03.754Z,87.01
2022-09-12T05:09:42.514Z,87.01
2022-09-12T05:10:43.626Z,87.30
2022-09-12T05:12:03.085Z,87.24
2022-09-12T05:12:43.583Z,87.22
2022-09-12T05:13:42.586Z,87.39
2022-09-12T05:14:42.463Z,87.40
2022-09-12T05:15:42.538Z,87.15
2022-09-12T05:16:46.061Z,86.96
2022-09-12T05:17:43.484Z,86.86
2022-09-12T05:18:42.629Z,86.88
2022-09-12T05:19:42.435Z,86.93
2022-09-12T05:20:44.564Z,87.08
2022-09-12T05:21:42.414Z,87.07
2022-09-12T05:22:42.505Z,87.02
2022-09-12T05:23:42.344Z,87.00
2022-09-12T05:24:47.286Z,86.94
2022-09-12T05:25:43.305Z,86.91
2022-09-12T05:26:42.372Z,86.89
2022-09-12T05:27:42.280Z,87.03
2022-09-12T05:28:42.304Z,86.97
2022-09-12T05:29:42.295Z,87.13
2022-09-12T05:30:42.398Z,87.19
2022-09-12T05:31:42.223Z,87.28
2022-09-12T05:32:42.384Z,87.33
2022-09-12T05:33:42.234Z,87.30
2022-09-12T05:34:42.458Z,87.42
2022-09-12T05:35:42.227Z,87.38
2022-09-12T05:36:42.305Z,87.34
2022-09-12T05:37:42.153Z,87.34
2022-09-12T05:39:04.184Z,87.46
2022-09-12T05:39:42.225Z,87.44
2022-09-12T05:40:42.260Z,87.40
2022-09-12T05:41:42.157Z,87.42
2022-09-12T05:42:42.206Z,87.43
2022-09-12T05:43:42.076Z,87.18
2022-09-12T05:44:43.225Z,87.29
2022-09-12T05:45:42.112Z,87.29
2022-09-12T05:46:42.167Z,87.37
2022-09-12T05:47:42.037Z,87.18
2022-09-12T05:48:42.139Z,87.15
2022-09-12T05:49:41.987Z,87.07
2022-09-12T05:51:05.177Z,87.11
2022-09-12T05:51:41.958Z,87.22
2022-09-12T05:52:42.126Z,87.22
2022-09-12T05:53:41.935Z,87.32
2022-09-12T05:54:42.034Z,87.36
2022-09-12T05:55:41.905Z,87.51
2022-09-12T05:56:42.008Z,87.58
2022-09-12T05:57:41.883Z,87.55
2022-09-12T05:58:42.004Z,87.56
2022-09-12T05:59:41.855Z,87.57
2022-09-12T06:00:42.036Z,87.41
2022-09-12T06:01:41.918Z,87.39
2022-09-12T06:02:42.067Z,87.61
2022-09-12T06:03:41.807Z,87.65
2022-09-12T06:04:42.868Z,87.70
2022-09-12T06:05:41.775Z,87.85
2022-09-12T06:06:42.858Z,87.93
2022-09-12T06:07:41.757Z,87.98
2022-09-12T06:08:41.824Z,87.97
2022-09-12T06:09:41.716Z,87.91
2022-09-12T06:10:41.846Z,87.86
2022-09-12T06:11:41.697Z,87.78
2022-09-12T06:12:41.837Z,87.83
2022-09-12T06:13:41.680Z,87.83
2022-09-12T06:15:04.786Z,87.89
2022-09-12T06:15:41.748Z,87.68
2022-09-12T06:16:41.837Z,87.61
2022-09-12T06:17:41.607Z,87.72
2022-09-12T06:18:41.786Z,87.67
2022-09-12T06:19:41.594Z,87.30
2022-09-12T06:21:51.008Z,87.57
2022-09-12T06:22:50.859Z,87.57
2022-09-12T06:23:50.928Z,87.17
2022-09-12T06:24:53.778Z,87.10
2022-09-12T06:25:51.805Z,86.99
2022-09-12T06:26:50.956Z,86.50
2022-09-12T06:27:50.778Z,87.19
2022-09-12T06:28:50.879Z,87.50
2022-09-12T06:29:50.769Z,87.21
2022-09-12T06:30:50.939Z,86.95
2022-09-12T06:31:50.759Z,86.63
2022-09-12T06:32:50.749Z,86.34
2022-09-12T06:33:50.713Z,85.82
2022-09-12T06:34:51.778Z,85.88
2022-09-12T06:35:50.700Z,86.55
2022-09-12T06:36:50.820Z,85.89
2022-09-12T06:37:50.688Z,84.24
2022-09-12T06:38:52.859Z,84.62
2022-09-12T06:39:50.656Z,84.55
2022-09-12T06:40:50.791Z,84.07
2022-09-12T06:41:50.612Z,83.82
2022-09-12T06:42:51.649Z,83.92
2022-09-12T06:43:50.570Z,83.69
2022-09-12T06:44:50.779Z,83.00
2022-09-12T06:45:50.731Z,82.86
2022-09-12T06:46:51.626Z,83.07
2022-09-12T06:47:50.529Z,82.50
2022-09-12T06:49:11.609Z,82.43
2022-09-12T06:49:50.481Z,82.79
2022-09-12T06:50:50.680Z,82.32
2022-09-12T06:51:50.471Z,82.65
2022-09-12T06:52:50.467Z,82.59
2022-09-12T06:53:50.484Z,82.55
2022-09-12T06:54:50.541Z,82.38
2022-09-12T06:55:50.411Z,82.03
2022-09-12T06:56:50.570Z,82.01
2022-09-12T06:57:50.390Z,82.25
2022-09-12T06:58:50.560Z,82.19
2022-09-12T06:59:50.400Z,81.81
2022-09-12T07:00:50.422Z,82.00
2022-09-12T07:01:50.389Z,82.52
2022-09-12T07:02:50.434Z,82.50
2022-09-12T07:03:50.308Z,82.21
2022-09-12T07:04:50.440Z,82.52
2022-09-12T07:05:50.310Z,81.09
2022-09-12T07:06:51.420Z,79.71
2022-09-12T07:07:50.301Z,79.05
2022-09-12T07:08:50.284Z,79.66
2022-09-12T07:09:50.227Z,80.59
2022-09-12T07:10:50.422Z,79.33
2022-09-12T07:11:50.221Z,79.86
2022-09-12T07:12:50.361Z,80.03
2022-09-12T07:13:50.190Z,78.83
2022-09-12T07:14:50.220Z,78.94
2022-09-12T07:15:50.210Z,79.26
2022-09-12T07:16:50.378Z,79.01
2022-09-12T07:17:50.143Z,79.20
2022-09-12T07:18:50.251Z,78.76
2022-09-12T07:19:50.090Z,78.86
2022-09-12T07:20:50.261Z,77.70
2022-09-12T07:21:50.144Z,77.17
2022-09-12T07:23:11.171Z,77.80
2022-09-12T07:23:50.042Z,77.21
2022-09-12T07:24:50.115Z,77.18
2022-09-12T07:25:50.012Z,77.19
2022-09-12T07:26:51.132Z,76.85
2022-09-12T07:27:51.310Z,77.50
2022-09-12T07:28:51.218Z,77.19
2022-09-12T07:29:50.027Z,77.46
2022-09-12T07:30:52.117Z,76.79
2022-09-12T07:31:49.935Z,76.82
2022-09-12T07:32:50.114Z,76.72
2022-09-12T07:33:54.195Z,77.06
2022-09-12T07:34:49.912Z,76.68
2022-09-12T07:35:50.055Z,77.12
2022-09-12T07:36:49.862Z,77.73
2022-09-12T07:37:52.066Z,77.07
2022-09-12T07:38:49.848Z,77.23
2022-09-12T07:39:49.966Z,77.05
2022-09-12T07:40:49.921Z,76.81
2022-09-12T07:41:49.914Z,76.00
2022-09-12T07:42:49.783Z,75.94
2022-09-12T07:43:49.865Z,75.99
2022-09-12T07:44:49.766Z,75.70
2022-09-12T07:45:49.891Z,75.24
2022-09-12T07:46:49.813Z,75.30
2022-09-12T07:47:49.823Z,76.08
2022-09-12T07:48:49.704Z,76.76
2022-09-12T07:51:00.675Z,75.99
2022-09-12T07:51:59.682Z,75.99
2022-09-12T07:52:59.690Z,75.29
2022-09-12T07:53:59.512Z,75.69
2022-09-12T07:54:59.632Z,75.89
2022-09-12T07:55:59.489Z,76.34
2022-09-12T07:56:59.621Z,76.78
2022-09-12T07:57:59.567Z,75.85
2022-09-12T07:58:59.592Z,75.08
2022-09-12T07:59:59.434Z,75.19
2022-09-12T08:00:59.561Z,75.40
2022-09-12T08:01:59.402Z,76.83
2022-09-12T08:03:00.586Z,75.61
2022-09-12T08:03:59.403Z,76.64
2022-09-12T08:04:59.404Z,75.61
2022-09-12T08:05:59.345Z,75.74
2022-09-12T08:07:00.466Z,75.45
2022-09-12T08:07:59.327Z,75.26
2022-09-12T08:08:59.475Z,75.12
2022-09-12T08:09:59.323Z,74.57
2022-09-12T08:10:59.484Z,74.96
2022-09-12T08:11:59.314Z,74.66
2022-09-12T08:12:59.449Z,75.06
2022-09-12T08:13:59.247Z,77.02
2022-09-12T08:15:00.304Z,76.87
2022-09-12T08:15:59.263Z,75.70
2022-09-12T08:16:59.375Z,76.11
2022-09-12T08:17:59.213Z,75.49
2022-09-12T08:18:59.410Z,75.32
2022-09-12T08:19:59.154Z,75.19
2022-09-12T08:20:59.283Z,75.28
2022-09-12T08:21:59.174Z,75.66
2022-09-12T08:23:00.384Z,75.58
2022-09-12T08:23:59.194Z,75.80
2022-09-12T08:24:59.154Z,75.38
2022-09-12T08:26:01.332Z,76.28
2022-09-12T08:26:59.066Z,76.18
2022-09-12T08:28:00.226Z,75.73
2022-09-12T08:28:59.107Z,74.88
2022-09-12T08:29:59.086Z,74.75
2022-09-12T08:30:59.061Z,74.02
2022-09-12T08:32:20.064Z,75.05
2022-09-12T08:32:58.998Z,74.97
2022-09-12T08:34:00.147Z,74.14
2022-09-12T08:34:59.007Z,74.59
2022-09-12T08:35:59.147Z,75.04
2022-09-12T08:36:58.943Z,74.53
2022-09-12T08:37:59.028Z,75.21
2022-09-12T08:39:00.204Z,74.39
2022-09-12T08:40:00.107Z,75.11
2022-09-12T08:40:58.888Z,74.89
2022-09-12T08:41:59.107Z,73.63
2022-09-12T08:42:58.946Z,74.16
2022-09-12T08:43:59.036Z,74.07
2022-09-12T08:44:58.826Z,74.14
2022-09-12T08:45:59.060Z,75.59
2022-09-12T08:46:58.797Z,75.32
2022-09-12T08:47:58.907Z,75.94
2022-09-12T08:48:58.925Z,76.31
2022-09-12T08:51:08.258Z,74.20
2022-09-12T08:52:08.019Z,74.20
2022-09-12T08:53:08.155Z,75.20
2022-09-12T08:54:07.979Z,74.23
2022-09-12T08:55:08.117Z,73.94
2022-09-12T08:56:08.025Z,73.74
2022-09-12T08:57:08.146Z,73.84
2022-09-12T08:58:08.002Z,74.16
2022-09-12T08:59:08.067Z,75.32
2022-09-12T09:00:07.897Z,74.43
2022-09-12T09:01:08.151Z,74.67
2022-09-12T09:02:07.951Z,74.57
2022-09-12T09:03:07.979Z,74.21
2022-09-12T09:04:07.907Z,73.96
2022-09-12T09:05:07.971Z,73.73
2022-09-12T09:06:07.817Z,73.92
2022-09-12T09:07:07.954Z,73.63
2022-09-12T09:08:07.796Z,73.90
2022-09-12T09:09:07.952Z,74.49
2022-09-12T09:10:07.797Z,74.11
2022-09-12T09:11:08.857Z,74.33
2022-09-12T09:12:07.789Z,74.64
2022-09-12T09:13:08.828Z,75.19
2022-09-12T09:14:07.715Z,75.12
2022-09-12T09:15:07.899Z,73.97
2022-09-12T09:16:07.874Z,74.00
2022-09-12T09:17:07.810Z,74.61
2022-09-12T09:18:07.752Z,75.14
2022-09-12T09:19:07.815Z,74.71
2022-09-12T09:20:07.636Z,74.00
2022-09-12T09:21:10.973Z,74.35
2022-09-12T09:22:07.610Z,74.36
2022-09-12T09:23:07.735Z,74.16
2022-09-12T09:24:07.648Z,74.71
2022-09-12T09:25:07.742Z,74.46
2022-09-12T09:26:07.557Z,73.89
2022-09-12T09:27:29.901Z,74.05
2022-09-12T09:28:08.773Z,73.51
2022-09-12T09:29:07.509Z,73.37
2022-09-12T09:30:07.658Z,73.28
2022-09-12T09:31:07.549Z,74.27
2022-09-12T09:32:07.661Z,75.07
2022-09-12T09:33:07.530Z,73.87
2022-09-12T09:34:29.629Z,74.33
2022-09-12T09:35:07.512Z,73.68
2022-09-12T09:36:07.567Z,72.65
2022-09-12T09:37:07.408Z,72.85
2022-09-12T09:38:07.560Z,72.04
2022-09-12T09:39:07.420Z,71.82
2022-09-12T09:40:08.610Z,72.00
2022-09-12T09:41:07.402Z,71.93
2022-09-12T09:42:08.559Z,71.29
2022-09-12T09:43:07.329Z,71.61
2022-09-12T09:45:07.341Z,72.05
2022-09-12T09:46:08.488Z,71.56
2022-09-12T09:47:07.340Z,70.78
2022-09-12T09:48:08.454Z,71.55
2022-09-12T09:49:07.241Z,70.89
2022-09-12T09:50:09.452Z,70.58
2022-09-12T09:51:07.317Z,70.15
2022-09-12T09:52:07.242Z,70.78
2022-09-12T09:53:07.231Z,70.33
2022-09-12T09:54:07.281Z,69.82
2022-09-12T09:55:07.172Z,70.93
2022-09-12T09:56:09.339Z,70.60
2022-09-12T09:57:07.182Z,70.30
2022-09-12T09:58:07.314Z,70.61
2022-09-12T09:59:07.111Z,71.84
2022-09-12T10:00:09.284Z,70.62
2022-09-12T10:01:07.127Z,69.59
2022-09-12T10:02:07.266Z,69.52
2022-09-12T10:03:11.299Z,70.06
2022-09-12T10:04:08.046Z,70.37
2022-09-12T10:05:07.222Z,71.57
2022-09-12T10:06:07.023Z,71.50
2022-09-12T10:07:08.085Z,71.34
2022-09-12T10:08:07.084Z,68.91
2022-09-12T10:09:08.193Z,70.24
2022-09-12T10:10:06.964Z,69.10
2022-09-12T10:11:07.138Z,69.56
2022-09-12T10:12:06.935Z,70.81
2022-09-12T10:13:07.073Z,69.18
2022-09-12T10:14:06.926Z,70.02
2022-09-12T10:15:06.955Z,69.55
2022-09-12T10:16:06.995Z,68.36
2022-09-12T10:17:06.933Z,67.72
2022-09-12T10:18:06.853Z,68.50
2022-09-12T10:19:09.084Z,68.80
2022-09-12T10:20:22.326Z,67.51
2022-09-12T10:21:07.867Z,68.46
2022-09-12T10:22:06.875Z,66.84
2022-09-12T10:23:06.785Z,66.11
2022-09-12T10:24:06.905Z,65.83
2022-09-12T10:25:06.757Z,64.97
2022-09-12T10:26:06.913Z,67.23
2022-09-12T10:27:06.815Z,66.87
2022-09-12T10:28:06.883Z,65.22
2022-09-12T10:29:06.706Z,65.10
2022-09-12T10:30:06.820Z,64.90
2022-09-12T10:31:06.767Z,64.89
2022-09-12T10:32:06.816Z,64.66
2022-09-12T10:33:06.734Z,64.18
2022-09-12T10:34:06.899Z,64.09
2022-09-12T10:35:06.657Z,64.41
2022-09-12T10:36:07.789Z,65.09
2022-09-12T10:37:06.599Z,65.31
2022-09-12T10:38:07.677Z,67.07
2022-09-12T10:39:06.599Z,64.38
2022-09-12T10:40:08.762Z,63.50
2022-09-12T10:41:06.617Z,64.23
2022-09-12T10:42:06.628Z,65.13
2022-09-12T10:43:06.587Z,65.68
2022-09-12T10:44:06.665Z,64.33
2022-09-12T10:45:06.527Z,66.03
2022-09-12T10:46:06.741Z,64.86
2022-09-12T10:47:06.519Z,64.04
2022-09-12T10:48:07.818Z,65.72
2022-09-12T10:49:06.442Z,65.26
2022-09-12T10:50:06.568Z,65.89
2022-09-12T10:51:06.438Z,62.69
2022-09-12T10:52:06.527Z,62.84
2022-09-12T10:53:06.394Z,62.89
2022-09-12T10:54:06.621Z,63.96
2022-09-12T10:55:06.393Z,63.01
2022-09-12T10:56:06.648Z,60.81
2022-09-12T10:57:06.442Z,59.33
2022-09-12T10:58:06.409Z,60.14
2022-09-12T10:59:06.299Z,60.57
2022-09-12T11:00:07.391Z,61.24
2022-09-12T11:01:06.330Z,61.13
2022-09-12T11:02:06.438Z,58.99
2022-09-12T11:03:06.320Z,59.80
2022-09-12T11:04:06.437Z,60.88
2022-09-12T11:05:06.230Z,61.55
2022-09-12T11:06:06.291Z,60.68
2022-09-12T11:07:06.192Z,60.46
2022-09-12T11:08:07.331Z,60.73
2022-09-12T11:09:06.212Z,60.45
2022-09-12T11:10:08.273Z,61.32
2022-09-12T11:11:06.140Z,61.65
2022-09-12T11:12:06.271Z,62.17
2022-09-12T11:13:06.115Z,61.00
2022-09-12T11:14:06.296Z,61.72
2022-09-12T11:15:06.153Z,62.13
2022-09-12T11:16:07.224Z,61.64
2022-09-12T11:17:06.150Z,60.02
2022-09-12T11:18:06.162Z,60.10
2022-09-12T11:19:06.045Z,59.90
2022-09-12T11:20:06.245Z,60.13
2022-09-12T11:21:06.034Z,60.65
2022-09-12T11:22:06.193Z,60.96
2022-09-12T11:23:06.121Z,61.35
2022-09-12T11:24:08.162Z,60.90
2022-09-12T11:25:05.945Z,61.14
2022-09-12T11:26:06.003Z,61.95
2022-09-12T11:27:05.953Z,62.19
2022-09-12T11:28:06.065Z,61.42
2022-09-12T11:29:05.902Z,61.35
2022-09-12T11:30:05.973Z,62.12
2022-09-12T11:31:05.946Z,62.90
2022-09-12T11:32:06.014Z,62.38
2022-09-12T11:33:05.884Z,61.77
2022-09-12T11:34:06.875Z,62.42
2022-09-12T11:35:05.828Z,61.51
2022-09-12T11:36:05.875Z,61.83
2022-09-12T11:37:10.333Z,61.55
2022-09-12T11:38:06.795Z,62.16
2022-09-12T11:39:06.832Z,61.84
2022-09-12T11:40:05.816Z,60.72
2022-09-12T11:41:06.845Z,62.04
2022-09-12T11:42:05.717Z,62.24
2022-09-12T11:43:05.853Z,61.15
2022-09-12T11:44:05.724Z,61.12
2022-09-12T11:45:05.705Z,61.28
2022-09-12T11:46:05.737Z,61.41
2022-09-12T11:47:05.915Z,61.13
2022-09-12T11:48:05.627Z,61.95
2022-09-12T11:49:05.764Z,63.01
2022-09-12T11:50:05.617Z,62.47
2022-09-12T11:51:05.707Z,60.75
2022-09-12T11:52:05.575Z,59.40
2022-09-12T11:53:05.738Z,59.90
2022-09-12T11:54:05.618Z,57.98
2022-09-12T11:55:05.578Z,59.98
2022-09-12T11:56:05.547Z,59.17
2022-09-12T11:57:07.766Z,57.76
2022-09-12T11:58:05.496Z,58.47
2022-09-12T11:59:05.681Z,58.10
2022-09-12T12:00:05.558Z,59.41
2022-09-12T12:01:05.579Z,58.38
2022-09-12T12:02:05.511Z,59.02
2022-09-12T12:03:06.665Z,58.91
2022-09-12T12:04:05.418Z,58.09
2022-09-12T12:05:06.573Z,57.81
2022-09-12T12:06:05.485Z,58.80
2022-09-12T12:07:05.653Z,59.33
2022-09-12T12:08:05.400Z,59.04
2022-09-12T12:09:06.429Z,58.83
2022-09-12T12:10:05.342Z,58.80
2022-09-12T12:11:05.452Z,56.86
2022-09-12T12:12:05.327Z,57.04
2022-09-12T12:13:05.509Z,57.64
2022-09-12T12:14:05.422Z,58.06
2022-09-12T12:15:05.312Z,58.31
2022-09-12T12:16:05.329Z,61.45
2022-09-12T12:17:06.373Z,59.56
2022-09-12T12:18:05.239Z,59.39
2022-09-12T12:19:10.014Z,59.69
2022-09-12T12:20:08.688Z,59.73
2022-09-12T12:21:05.322Z,60.65
2022-09-12T12:22:05.181Z,61.43
2022-09-12T12:23:05.360Z,60.80
2022-09-12T12:24:05.148Z,59.91
2022-09-12T12:25:05.180Z,60.49
2022-09-12T12:26:05.274Z,62.31
2022-09-12T12:27:05.222Z,61.31
2022-09-12T12:28:05.093Z,61.21
2022-09-12T12:29:05.262Z,59.34
2022-09-12T12:30:05.073Z,59.28
2022-09-12T12:31:05.274Z,58.85
2022-09-12T12:32:05.152Z,60.04
2022-09-12T12:33:06.173Z,59.94
2022-09-12T12:34:05.022Z,59.51
2022-09-12T12:35:05.043Z,59.95
2022-09-12T12:36:04.993Z,60.26
2022-09-12T12:37:07.435Z,61.19
2022-09-12T12:38:05.014Z,61.11
2022-09-12T12:39:05.035Z,60.99
2022-09-12T12:40:05.016Z,62.95
2022-09-12T12:41:05.075Z,61.06
2022-09-12T12:42:04.914Z,60.82
2022-09-12T12:43:05.105Z,61.21
2022-09-12T12:44:04.975Z,60.96
2022-09-12T12:45:04.906Z,60.50
2022-09-12T12:46:04.936Z,60.32
2022-09-12T12:47:04.982Z,60.72
2022-09-12T12:48:08.116Z,60.18
2022-09-12T12:49:29.125Z,60.64
2022-09-12T12:50:04.820Z,60.59
2022-09-12T12:51:05.046Z,60.89
2022-09-12T12:52:04.796Z,63.37
2022-09-12T12:53:04.886Z,59.15
2022-09-12T12:54:04.754Z,58.10
2022-09-12T12:55:04.836Z,59.54
2022-09-12T12:56:04.728Z,57.24
2022-09-12T12:57:05.877Z,56.38
2022-09-12T12:58:04.744Z,56.30